sensor_id;sensor_type;location;lat;lon;timestamp;pressure;altitude;pressure_sealevel;temperature;humidity
60258;BME280;46115;44.484;11.314;2022-09-09T00:03:24;99928.84;;;24.41;61.27
60258;BME280;46115;44.484;11.314;2022-09-09T00:07:37;99922.66;;;24.24;61.78
60258;BME280;46115;44.484;11.314;2022-09-09T00:11:46;99917.59;;;24.21;62.09
60258;BME280;46115;44.484;11.314;2022-09-09T00:15:57;99909.81;;;24.26;61.60
60258;BME280;46115;44.484;11.314;2022-09-09T00:20:09;99918.25;;;24.23;61.67
60258;BME280;46115;44.484;11.314;2022-09-09T00:24:26;99921.50;;;24.18;61.85
60258;BME280;46115;44.484;11.314;2022-09-09T00:28:31;99916.28;;;24.17;62.24
60258;BME280;46115;44.484;11.314;2022-09-09T00:32:35;99908.03;;;24.10;62.78
60258;BME280;46115;44.484;11.314;2022-09-09T00:36:39;99854.94;;;23.47;63.45
60258;BME280;46115;44.484;11.314;2022-09-09T00:40:49;99920.69;;;23.38;65.22
60258;BME280;46115;44.484;11.314;2022-09-09T00:44:56;99906.69;;;23.59;64.93
60258;BME280;46115;44.484;11.314;2022-09-09T00:49:05;99911.13;;;23.27;65.73
60258;BME280;46115;44.484;11.314;2022-09-09T00:53:22;99907.34;;;22.80;67.89
60258;BME280;46115;44.484;11.314;2022-09-09T00:57:28;99904.22;;;23.09;66.88
60258;BME280;46115;44.484;11.314;2022-09-09T01:01:31;99909.09;;;22.97;67.06
60258;BME280;46115;44.484;11.314;2022-09-09T01:05:36;99913.78;;;22.87;67.62
60258;BME280;46115;44.484;11.314;2022-09-09T01:09:52;99906.44;;;22.30;69.24
60258;BME280;46115;44.484;11.314;2022-09-09T01:13:56;99905.00;;;22.10;70.65
60258;BME280;46115;44.484;11.314;2022-09-09T01:18:06;99884.66;;;22.07;70.49
60258;BME280;46115;44.484;11.314;2022-09-09T01:22:18;99912.50;;;22.32;70.17
60258;BME280;46115;44.484;11.314;2022-09-09T01:26:30;99905.25;;;22.25;70.26
60258;BME280;46115;44.484;11.314;2022-09-09T01:30:39;99910.31;;;22.28;70.16
60258;BME280;46115;44.484;11.314;2022-09-09T01:34:45;99921.00;;;22.12;71.35
60258;BME280;46115;44.484;11.314;2022-09-09T01:38:48;99913.81;;;21.86;72.72
60258;BME280;46115;44.484;11.314;2022-09-09T01:42:53;99920.25;;;22.01;72.76
60258;BME280;46115;44.484;11.314;2022-09-09T01:46:56;99911.06;;;21.78;74.12
60258;BME280;46115;44.484;11.314;2022-09-09T01:50:59;99912.00;;;21.61;75.81
60258;BME280;46115;44.484;11.314;2022-09-09T01:55:02;99910.53;;;21.74;75.44
60258;BME280;46115;44.484;11.314;2022-09-09T01:59:24;99900.97;;;21.80;75.57
60258;BME280;46115;44.484;11.314;2022-09-09T02:03:34;99904.03;;;21.85;75.38
60258;BME280;46115;44.484;11.314;2022-09-09T02:07:49;99919.56;;;21.39;76.35
60258;BME280;46115;44.484;11.314;2022-09-09T02:12:05;99915.84;;;21.58;76.06
60258;BME280;46115;44.484;11.314;2022-09-09T02:16:21;99908.94;;;21.56;76.31
60258;BME280;46115;44.484;11.314;2022-09-09T02:20:27;99910.69;;;21.21;77.41
60258;BME280;46115;44.484;11.314;2022-09-09T02:24:37;99909.56;;;21.24;76.81
60258;BME280;46115;44.484;11.314;2022-09-09T02:29:02;99904.38;;;21.12;77.19
60258;BME280;46115;44.484;11.314;2022-09-09T02:33:07;99897.84;;;21.15;77.52
60258;BME280;46115;44.484;11.314;2022-09-09T02:37:20;99899.72;;;20.97;78.56
60258;BME280;46115;44.484;11.314;2022-09-09T02:41:31;99898.16;;;21.12;77.71
60258;BME280;46115;44.484;11.314;2022-09-09T02:45:40;99893.31;;;20.90;78.04
60258;BME280;46115;44.484;11.314;2022-09-09T02:49:58;99888.31;;;20.77;78.77
60258;BME280;46115;44.484;11.314;2022-09-09T02:54:10;99887.50;;;21.02;77.46
60258;BME280;46115;44.484;11.314;2022-09-09T02:58:19;99885.47;;;20.78;78.20
60258;BME280;46115;44.484;11.314;2022-09-09T03:02:30;99863.41;;;20.49;78.21
60258;BME280;46115;44.484;11.314;2022-09-09T03:06:40;99876.56;;;20.78;77.36
60258;BME280;46115;44.484;11.314;2022-09-09T03:10:51;99884.94;;;20.75;77.14
60258;BME280;46115;44.484;11.314;2022-09-09T03:14:55;99885.31;;;20.62;75.65
60258;BME280;46115;44.484;11.314;2022-09-09T03:18:58;99886.81;;;20.29;77.39
60258;BME280;46115;44.484;11.314;2022-09-09T03:23:02;99880.81;;;20.17;78.74
60258;BME280;46115;44.484;11.314;2022-09-09T03:27:05;99889.56;;;20.37;77.81
60258;BME280;46115;44.484;11.314;2022-09-09T03:31:09;99882.34;;;20.65;77.97
60258;BME280;46115;44.484;11.314;2022-09-09T03:35:15;99876.84;;;20.39;78.84
60258;BME280;46115;44.484;11.314;2022-09-09T03:39:19;99882.78;;;20.61;77.09
60258;BME280;46115;44.484;11.314;2022-09-09T03:43:22;99889.91;;;20.70;76.41
60258;BME280;46115;44.484;11.314;2022-09-09T03:47:26;99888.16;;;20.15;78.66
60258;BME280;46115;44.484;11.314;2022-09-09T03:51:37;99895.03;;;20.45;80.02
60258;BME280;46115;44.484;11.314;2022-09-09T03:55:44;99883.25;;;20.56;81.36
60258;BME280;46115;44.484;11.314;2022-09-09T03:59:48;99886.16;;;20.80;80.00
60258;BME280;46115;44.484;11.314;2022-09-09T04:03:50;99891.66;;;20.79;80.35
60258;BME280;46115;44.484;11.314;2022-09-09T04:07:53;99885.41;;;20.25;81.63
60258;BME280;46115;44.484;11.314;2022-09-09T04:11:57;99881.03;;;20.51;79.75
60258;BME280;46115;44.484;11.314;2022-09-09T04:16:02;99875.38;;;20.27;79.68
60258;BME280;46115;44.484;11.314;2022-09-09T04:20:05;99870.38;;;20.32;79.75
60258;BME280;46115;44.484;11.314;2022-09-09T04:24:12;99871.38;;;20.31;79.09
60258;BME280;46115;44.484;11.314;2022-09-09T04:28:21;99866.59;;;20.07;79.25
60258;BME280;46115;44.484;11.314;2022-09-09T04:32:24;99869.03;;;20.46;77.49
60258;BME280;46115;44.484;11.314;2022-09-09T04:36:28;99861.88;;;20.19;77.75
60258;BME280;46115;44.484;11.314;2022-09-09T04:40:34;99867.19;;;20.01;78.45
60258;BME280;46115;44.484;11.314;2022-09-09T04:44:38;99864.22;;;20.04;79.54
60258;BME280;46115;44.484;11.314;2022-09-09T04:48:42;99862.53;;;20.03;81.26
60258;BME280;46115;44.484;11.314;2022-09-09T04:52:45;99870.56;;;20.03;81.31
60258;BME280;46115;44.484;11.314;2022-09-09T04:56:50;99868.53;;;20.15;81.66
60258;BME280;46115;44.484;11.314;2022-09-09T05:00:54;99850.84;;;19.94;82.54
60258;BME280;46115;44.484;11.314;2022-09-09T05:04:57;99863.44;;;19.94;79.76
60258;BME280;46115;44.484;11.314;2022-09-09T05:08:59;99870.72;;;20.02;77.53
60258;BME280;46115;44.484;11.314;2022-09-09T05:13:04;99869.09;;;19.91;77.41
60258;BME280;46115;44.484;11.314;2022-09-09T05:17:09;99861.19;;;19.89;77.98
60258;BME280;46115;44.484;11.314;2022-09-09T05:21:14;99870.06;;;20.17;75.85
60258;BME280;46115;44.484;11.314;2022-09-09T05:25:17;99865.66;;;19.99;77.05
60258;BME280;46115;44.484;11.314;2022-09-09T05:29:21;99879.41;;;20.59;74.58
60258;BME280;46115;44.484;11.314;2022-09-09T05:33:25;99889.47;;;20.57;75.08
60258;BME280;46115;44.484;11.314;2022-09-09T05:37:28;99894.56;;;21.03;73.31
60258;BME280;46115;44.484;11.314;2022-09-09T05:41:31;99900.16;;;21.10;73.41
60258;BME280;46115;44.484;11.314;2022-09-09T05:45:36;99906.81;;;21.67;70.98
60258;BME280;46115;44.484;11.314;2022-09-09T05:49:40;99907.00;;;21.74;70.41
60258;BME280;46115;44.484;11.314;2022-09-09T05:53:43;99909.63;;;22.26;69.27
60258;BME280;46115;44.484;11.314;2022-09-09T05:57:48;99902.53;;;22.99;66.93
60258;BME280;46115;44.484;11.314;2022-09-09T06:01:53;99903.28;;;23.73;63.89
60258;BME280;46115;44.484;11.314;2022-09-09T06:06:04;99908.75;;;23.24;64.61
60258;BME280;46115;44.484;11.314;2022-09-09T06:10:08;99916.09;;;23.55;63.53
60258;BME280;46115;44.484;11.314;2022-09-09T06:14:10;99909.94;;;23.93;63.49
60258;BME280;46115;44.484;11.314;2022-09-09T06:18:14;99910.38;;;25.21;60.64
60258;BME280;46115;44.484;11.314;2022-09-09T06:22:20;99909.50;;;25.58;58.62
60258;BME280;46115;44.484;11.314;2022-09-09T06:26:24;99902.19;;;25.67;59.27
60258;BME280;46115;44.484;11.314;2022-09-09T06:30:27;99904.44;;;26.07;58.19
60258;BME280;46115;44.484;11.314;2022-09-09T06:34:31;99897.75;;;26.39;57.78
60258;BME280;46115;44.484;11.314;2022-09-09T06:38:36;99905.34;;;27.92;53.39
60258;BME280;46115;44.484;11.314;2022-09-09T06:42:38;99913.28;;;29.48;48.95
60258;BME280;46115;44.484;11.314;2022-09-09T06:46:56;99918.19;;;31.00;44.78
60258;BME280;46115;44.484;11.314;2022-09-09T06:51:03;99919.19;;;31.56;43.39
60258;BME280;46115;44.484;11.314;2022-09-09T06:55:08;99915.91;;;30.66;45.97
60258;BME280;46115;44.484;11.314;2022-09-09T06:59:11;99916.16;;;35.90;34.67
60258;BME280;46115;44.484;11.314;2022-09-09T07:03:15;99942.59;;;39.96;28.13
60258;BME280;46115;44.484;11.314;2022-09-09T07:07:19;99933.25;;;39.36;27.91
60258;BME280;46115;44.484;11.314;2022-09-09T07:11:24;99918.25;;;38.08;29.66
60258;BME280;46115;44.484;11.314;2022-09-09T07:15:28;99918.50;;;38.02;29.51
60258;BME280;46115;44.484;11.314;2022-09-09T07:19:30;99923.19;;;40.01;26.69
60258;BME280;46115;44.484;11.314;2022-09-09T07:23:33;99927.38;;;38.14;28.33
60258;BME280;46115;44.484;11.314;2022-09-09T07:27:38;99924.47;;;37.46;27.98
60258;BME280;46115;44.484;11.314;2022-09-09T07:31:41;99913.03;;;36.03;30.20
60258;BME280;46115;44.484;11.314;2022-09-09T07:35:48;99906.13;;;37.62;26.85
60258;BME280;46115;44.484;11.314;2022-09-09T07:39:51;99923.00;;;40.96;23.41
60258;BME280;46115;44.484;11.314;2022-09-09T07:43:55;99903.13;;;36.24;28.67
60258;BME280;46115;44.484;11.314;2022-09-09T07:48:00;99908.09;;;37.67;27.19
60258;BME280;46115;44.484;11.314;2022-09-09T07:52:02;99923.75;;;41.94;21.82
60258;BME280;46115;44.484;11.314;2022-09-09T07:56:07;99900.97;;;37.71;26.96
60258;BME280;46115;44.484;11.314;2022-09-09T08:00:14;99899.03;;;37.71;26.24
60258;BME280;46115;44.484;11.314;2022-09-09T08:04:22;99910.22;;;38.69;26.02
60258;BME280;46115;44.484;11.314;2022-09-09T08:08:25;99923.63;;;40.83;23.49
60258;BME280;46115;44.484;11.314;2022-09-09T08:12:28;99921.00;;;38.71;25.03
60258;BME280;46115;44.484;11.314;2022-09-09T08:16:34;99931.31;;;41.88;21.69
60258;BME280;46115;44.484;11.314;2022-09-09T08:20:37;99927.88;;;43.52;20.36
60258;BME280;46115;44.484;11.314;2022-09-09T08:24:40;99913.75;;;41.74;21.47
60258;BME280;46115;44.484;11.314;2022-09-09T08:28:43;99928.81;;;45.29;17.97
60258;BME280;46115;44.484;11.314;2022-09-09T08:32:48;99931.38;;;47.19;16.65
60258;BME280;46115;44.484;11.314;2022-09-09T08:36:53;99948.75;;;50.34;13.84
60258;BME280;46115;44.484;11.314;2022-09-09T08:41:30;99918.97;;;45.94;17.30
60258;BME280;46115;44.484;11.314;2022-09-09T08:45:37;99898.63;;;42.52;19.41
60258;BME280;46115;44.484;11.314;2022-09-09T08:50:01;99922.50;;;44.15;20.35
60258;BME280;46115;44.484;11.314;2022-09-09T08:54:08;99935.94;;;50.24;15.19
60258;BME280;46115;44.484;11.314;2022-09-09T08:58:14;99938.03;;;50.51;14.79
60258;BME280;46115;44.484;11.314;2022-09-09T09:02:21;99929.84;;;46.70;18.22
60258;BME280;46115;44.484;11.314;2022-09-09T09:06:49;99938.53;;;49.92;15.72
60258;BME280;46115;44.484;11.314;2022-09-09T09:10:58;99927.91;;;47.77;17.36
60258;BME280;46115;44.484;11.314;2022-09-09T09:15:02;99899.88;;;40.72;24.57
60258;BME280;46115;44.484;11.314;2022-09-09T09:19:13;99925.25;;;47.90;16.95
60258;BME280;46115;44.484;11.314;2022-09-09T09:23:22;99914.13;;;43.88;20.92
60258;BME280;46115;44.484;11.314;2022-09-09T09:27:31;99893.16;;;39.18;26.36
60258;BME280;46115;44.484;11.314;2022-09-09T09:31:35;99895.19;;;40.13;25.79
60258;BME280;46115;44.484;11.314;2022-09-09T09:35:37;99879.31;;;38.73;28.55
60258;BME280;46115;44.484;11.314;2022-09-09T09:39:41;99907.31;;;43.67;21.53
60258;BME280;46115;44.484;11.314;2022-09-09T09:43:53;99874.66;;;36.13;31.50
60258;BME280;46115;44.484;11.314;2022-09-09T09:48:00;99872.75;;;36.63;30.50
60258;BME280;46115;44.484;11.314;2022-09-09T09:52:05;99886.03;;;36.00;31.59
60258;BME280;46115;44.484;11.314;2022-09-09T09:56:12;99878.41;;;34.11;35.56
60258;BME280;46115;44.484;11.314;2022-09-09T10:00:17;99884.72;;;34.97;33.44
60258;BME280;46115;44.484;11.314;2022-09-09T10:04:27;99880.91;;;35.15;32.39
60258;BME280;46115;44.484;11.314;2022-09-09T10:08:34;99873.50;;;35.15;31.95
60258;BME280;46115;44.484;11.314;2022-09-09T10:12:56;99860.44;;;33.92;34.24
60258;BME280;46115;44.484;11.314;2022-09-09T10:17:13;99857.44;;;34.05;34.41
60258;BME280;46115;44.484;11.314;2022-09-09T10:21:30;99872.97;;;33.76;34.58
60258;BME280;46115;44.484;11.314;2022-09-09T10:25:59;99861.44;;;32.74;36.56
60258;BME280;46115;44.484;11.314;2022-09-09T10:30:11;99866.13;;;32.85;36.49
60258;BME280;46115;44.484;11.314;2022-09-09T10:34:26;99857.75;;;32.38;36.87
60258;BME280;46115;44.484;11.314;2022-09-09T10:38:39;99865.63;;;32.46;37.39
60258;BME280;46115;44.484;11.314;2022-09-09T10:42:44;99858.22;;;31.62;38.73
60258;BME280;46115;44.484;11.314;2022-09-09T10:51:33;99856.00;;;30.78;40.74
60258;BME280;46115;44.484;11.314;2022-09-09T10:55:41;99857.59;;;30.60;41.83
60258;BME280;46115;44.484;11.314;2022-09-09T10:59:48;99835.91;;;32.02;37.62
60258;BME280;46115;44.484;11.314;2022-09-09T11:03:59;99848.06;;;31.01;37.74
60258;BME280;46115;44.484;11.314;2022-09-09T11:08:05;99846.34;;;31.50;37.67
60258;BME280;46115;44.484;11.314;2022-09-09T11:12:13;99840.00;;;30.50;38.72
60258;BME280;46115;44.484;11.314;2022-09-09T11:16:24;99838.38;;;30.04;39.69
60258;BME280;46115;44.484;11.314;2022-09-09T11:20:29;99845.78;;;30.98;37.64
60258;BME280;46115;44.484;11.314;2022-09-09T11:24:37;99835.34;;;31.13;37.66
60258;BME280;46115;44.484;11.314;2022-09-09T11:28:51;99844.31;;;31.45;36.04
60258;BME280;46115;44.484;11.314;2022-09-09T11:33:13;99848.09;;;31.44;35.71
60258;BME280;46115;44.484;11.314;2022-09-09T11:37:46;99810.09;;;31.24;35.33
60258;BME280;46115;44.484;11.314;2022-09-09T11:41:51;99839.22;;;31.30;35.77
60258;BME280;46115;44.484;11.314;2022-09-09T11:45:56;99829.00;;;30.31;37.08
60258;BME280;46115;44.484;11.314;2022-09-09T11:50:09;99846.50;;;31.37;34.14
60258;BME280;46115;44.484;11.314;2022-09-09T11:54:29;99842.66;;;30.94;35.19
60258;BME280;46115;44.484;11.314;2022-09-09T11:58:37;99842.03;;;31.42;33.84
60258;BME280;46115;44.484;11.314;2022-09-09T12:02:48;99826.69;;;31.41;33.80
60258;BME280;46115;44.484;11.314;2022-09-09T12:06:54;99823.75;;;31.24;33.95
60258;BME280;46115;44.484;11.314;2022-09-09T12:10:59;99827.03;;;30.07;35.29
60258;BME280;46115;44.484;11.314;2022-09-09T12:15:21;99828.97;;;30.38;35.14
60258;BME280;46115;44.484;11.314;2022-09-09T12:19:23;99830.94;;;30.87;33.68
60258;BME280;46115;44.484;11.314;2022-09-09T12:23:32;99830.19;;;31.30;34.03
60258;BME280;46115;44.484;11.314;2022-09-09T12:27:46;99833.66;;;31.12;34.36
60258;BME280;46115;44.484;11.314;2022-09-09T12:31:58;99838.97;;;31.75;33.67
60258;BME280;46115;44.484;11.314;2022-09-09T12:36:03;99831.59;;;31.57;33.39
60258;BME280;46115;44.484;11.314;2022-09-09T12:40:19;99834.19;;;31.02;34.86
60258;BME280;46115;44.484;11.314;2022-09-09T12:44:24;99823.44;;;31.51;33.65
60258;BME280;46115;44.484;11.314;2022-09-09T12:48:32;99837.25;;;31.38;34.14
60258;BME280;46115;44.484;11.314;2022-09-09T12:52:37;99827.13;;;31.20;34.57
60258;BME280;46115;44.484;11.314;2022-09-09T12:56:40;99835.03;;;31.28;35.01
60258;BME280;46115;44.484;11.314;2022-09-09T13:00:53;99829.00;;;30.94;35.74
60258;BME280;46115;44.484;11.314;2022-09-09T13:05:06;99796.06;;;30.33;36.47
60258;BME280;46115;44.484;11.314;2022-09-09T13:09:09;99816.50;;;30.49;37.02
60258;BME280;46115;44.484;11.314;2022-09-09T13:13:14;99817.84;;;30.39;36.91
60258;BME280;46115;44.484;11.314;2022-09-09T13:17:21;99814.44;;;30.13;37.41
60258;BME280;46115;44.484;11.314;2022-09-09T13:21:32;99804.41;;;30.00;36.67
60258;BME280;46115;44.484;11.314;2022-09-09T13:25:35;99812.50;;;30.51;36.71
60258;BME280;46115;44.484;11.314;2022-09-09T13:29:37;99806.63;;;30.61;37.01
60258;BME280;46115;44.484;11.314;2022-09-09T13:33:43;99791.19;;;30.41;36.14
60258;BME280;46115;44.484;11.314;2022-09-09T13:37:45;99805.50;;;30.93;36.35
60258;BME280;46115;44.484;11.314;2022-09-09T13:41:47;99809.66;;;31.21;35.41
60258;BME280;46115;44.484;11.314;2022-09-09T13:45:55;99804.72;;;31.36;35.07
60258;BME280;46115;44.484;11.314;2022-09-09T13:50:14;99788.97;;;30.88;36.29
60258;BME280;46115;44.484;11.314;2022-09-09T13:54:20;99805.44;;;31.00;35.51
60258;BME280;46115;44.484;11.314;2022-09-09T13:58:24;99799.50;;;30.60;35.71
60258;BME280;46115;44.484;11.314;2022-09-09T14:02:27;99792.06;;;30.35;38.62
60258;BME280;46115;44.484;11.314;2022-09-09T14:06:31;99796.91;;;30.33;39.59
60258;BME280;46115;44.484;11.314;2022-09-09T14:10:33;99791.63;;;30.70;40.02
60258;BME280;46115;44.484;11.314;2022-09-09T14:14:38;99780.38;;;30.28;40.87
60258;BME280;46115;44.484;11.314;2022-09-09T14:18:40;99773.22;;;30.34;41.12
60258;BME280;46115;44.484;11.314;2022-09-09T14:22:44;99785.53;;;30.05;42.44
60258;BME280;46115;44.484;11.314;2022-09-09T14:26:46;99776.16;;;29.94;42.52
60258;BME280;46115;44.484;11.314;2022-09-09T14:30:49;99776.31;;;29.55;43.28
60258;BME280;46115;44.484;11.314;2022-09-09T14:34:51;99740.31;;;29.46;43.23
60258;BME280;46115;44.484;11.314;2022-09-09T14:38:55;99776.31;;;29.55;43.66
60258;BME280;46115;44.484;11.314;2022-09-09T14:42:58;99778.28;;;29.79;43.10
60258;BME280;46115;44.484;11.314;2022-09-09T14:47:01;99792.97;;;29.78;42.66
60258;BME280;46115;44.484;11.314;2022-09-09T14:51:07;99797.13;;;29.16;44.78
60258;BME280;46115;44.484;11.314;2022-09-09T14:55:11;99816.75;;;28.72;48.25
60258;BME280;46115;44.484;11.314;2022-09-09T14:59:14;99815.72;;;28.53;48.91
60258;BME280;46115;44.484;11.314;2022-09-09T15:03:16;99811.53;;;28.77;50.56
60258;BME280;46115;44.484;11.314;2022-09-09T15:07:18;99847.66;;;28.44;52.38
60258;BME280;46115;44.484;11.314;2022-09-09T15:11:23;99847.34;;;26.88;56.55
60258;BME280;46115;44.484;11.314;2022-09-09T15:15:25;99848.72;;;25.69;60.56
60258;BME280;46115;44.484;11.314;2022-09-09T15:19:28;99856.25;;;25.44;61.66
60258;BME280;46115;44.484;11.314;2022-09-09T15:23:31;99847.16;;;25.07;62.12
60258;BME280;46115;44.484;11.314;2022-09-09T15:27:35;99836.88;;;24.80;61.74
60258;BME280;46115;44.484;11.314;2022-09-09T15:31:40;99827.19;;;24.85;60.21
60258;BME280;46115;44.484;11.314;2022-09-09T15:35:42;99834.84;;;25.19;59.54
60258;BME280;46115;44.484;11.314;2022-09-09T15:39:45;99845.22;;;25.45;59.86
60258;BME280;46115;44.484;11.314;2022-09-09T15:43:50;99837.47;;;25.42;60.18
60258;BME280;46115;44.484;11.314;2022-09-09T15:47:53;99848.66;;;25.25;60.89
60258;BME280;46115;44.484;11.314;2022-09-09T15:51:58;99843.19;;;25.33;60.73
60258;BME280;46115;44.484;11.314;2022-09-09T15:56:04;99837.56;;;25.19;61.22
60258;BME280;46115;44.484;11.314;2022-09-09T16:00:10;99835.88;;;25.18;61.24
60258;BME280;46115;44.484;11.314;2022-09-09T16:04:14;99842.91;;;25.42;59.91
60258;BME280;46115;44.484;11.314;2022-09-09T16:08:24;99867.63;;;25.54;58.69
60258;BME280;46115;44.484;11.314;2022-09-09T16:12:26;99895.41;;;25.33;59.10
60258;BME280;46115;44.484;11.314;2022-09-09T16:16:30;99891.69;;;24.88;61.88
60258;BME280;46115;44.484;11.314;2022-09-09T16:20:32;99860.69;;;24.00;65.35
60258;BME280;46115;44.484;11.314;2022-09-09T16:24:35;99880.34;;;24.47;66.35
60258;BME280;46115;44.484;11.314;2022-09-09T16:28:37;99870.50;;;24.23;69.28
60258;BME280;46115;44.484;11.314;2022-09-09T16:32:41;99859.63;;;24.09;71.43
60258;BME280;46115;44.484;11.314;2022-09-09T16:36:44;99854.75;;;24.04;72.75
60258;BME280;46115;44.484;11.314;2022-09-09T16:40:47;99851.69;;;24.07;73.51
60258;BME280;46115;44.484;11.314;2022-09-09T16:44:51;99853.25;;;24.02;74.02
60258;BME280;46115;44.484;11.314;2022-09-09T16:48:56;99845.91;;;23.79;73.38
60258;BME280;46115;44.484;11.314;2022-09-09T16:52:59;99858.41;;;24.11;71.01
60258;BME280;46115;44.484;11.314;2022-09-09T16:57:03;99865.09;;;24.32;69.06
60258;BME280;46115;44.484;11.314;2022-09-09T17:01:06;99868.47;;;24.25;69.17
60258;BME280;46115;44.484;11.314;2022-09-09T17:05:09;99864.88;;;24.02;71.34
60258;BME280;46115;44.484;11.314;2022-09-09T17:09:13;99863.38;;;24.00;70.84
60258;BME280;46115;44.484;11.314;2022-09-09T17:13:15;99859.47;;;23.63;72.70
60258;BME280;46115;44.484;11.314;2022-09-09T17:17:20;99843.47;;;23.61;72.68
60258;BME280;46115;44.484;11.314;2022-09-09T17:21:25;99858.41;;;23.80;71.99
60258;BME280;46115;44.484;11.314;2022-09-09T17:25:28;99852.03;;;23.73;71.86
60258;BME280;46115;44.484;11.314;2022-09-09T17:29:30;99842.28;;;23.64;71.73
60258;BME280;46115;44.484;11.314;2022-09-09T17:33:34;99851.59;;;23.37;73.43
60258;BME280;46115;44.484;11.314;2022-09-09T17:37:38;99863.28;;;23.05;78.06
60258;BME280;46115;44.484;11.314;2022-09-09T17:41:40;99868.00;;;22.95;78.24
60258;BME280;46115;44.484;11.314;2022-09-09T17:45:43;99863.13;;;22.98;78.11
60258;BME280;46115;44.484;11.314;2022-09-09T17:49:47;99870.34;;;22.98;77.49
60258;BME280;46115;44.484;11.314;2022-09-09T17:53:52;99861.72;;;23.19;76.26
60258;BME280;46115;44.484;11.314;2022-09-09T17:57:55;99861.41;;;23.06;76.90
60258;BME280;46115;44.484;11.314;2022-09-09T18:01:58;99872.72;;;22.93;77.80
60258;BME280;46115;44.484;11.314;2022-09-09T18:06:01;99875.38;;;22.77;79.24
60258;BME280;46115;44.484;11.314;2022-09-09T18:10:05;99871.31;;;22.56;80.78
60258;BME280;46115;44.484;11.314;2022-09-09T18:14:09;99875.00;;;22.47;81.07
60258;BME280;46115;44.484;11.314;2022-09-09T22:06:11;99954.91;;;22.38;63.66
60258;BME280;46115;44.484;11.314;2022-09-09T22:10:14;99952.03;;;22.24;64.31
60258;BME280;46115;44.484;11.314;2022-09-09T22:14:19;99958.59;;;22.29;64.12
60258;BME280;46115;44.484;11.314;2022-09-09T22:18:21;99961.56;;;22.18;64.41
60258;BME280;46115;44.484;11.314;2022-09-09T22:22:25;99960.25;;;22.22;64.31
60258;BME280;46115;44.484;11.314;2022-09-09T22:26:30;99963.97;;;22.29;63.87
60258;BME280;46115;44.484;11.314;2022-09-09T22:30:33;99958.25;;;22.24;63.78
60258;BME280;46115;44.484;11.314;2022-09-09T22:34:35;99953.38;;;22.28;63.48
60258;BME280;46115;44.484;11.314;2022-09-09T22:38:39;99943.63;;;22.27;63.68
60258;BME280;46115;44.484;11.314;2022-09-09T22:42:42;99937.16;;;22.20;63.56
60258;BME280;46115;44.484;11.314;2022-09-09T22:46:44;99943.09;;;22.23;63.45
60258;BME280;46115;44.484;11.314;2022-09-09T22:50:47;99944.28;;;22.29;63.19
60258;BME280;46115;44.484;11.314;2022-09-09T22:54:50;99947.31;;;22.26;63.11
60258;BME280;46115;44.484;11.314;2022-09-09T22:58:55;99947.00;;;22.29;62.83
60258;BME280;46115;44.484;11.314;2022-09-09T23:02:57;99946.47;;;22.25;62.94
60258;BME280;46115;44.484;11.314;2022-09-09T23:07:00;99946.81;;;22.22;63.00
60258;BME280;46115;44.484;11.314;2022-09-09T23:11:05;99946.31;;;22.27;62.76
60258;BME280;46115;44.484;11.314;2022-09-09T23:15:10;99955.22;;;22.27;62.91
60258;BME280;46115;44.484;11.314;2022-09-09T23:19:14;99958.41;;;22.23;64.22
60258;BME280;46115;44.484;11.314;2022-09-09T23:23:16;99962.31;;;22.02;64.86
60258;BME280;46115;44.484;11.314;2022-09-09T23:27:20;99968.06;;;21.82;67.00
60258;BME280;46115;44.484;11.314;2022-09-09T23:31:24;99976.06;;;21.91;67.16
60258;BME280;46115;44.484;11.314;2022-09-09T23:35:27;99980.25;;;21.42;68.67
60258;BME280;46115;44.484;11.314;2022-09-09T23:39:29;99978.28;;;21.26;70.01
60258;BME280;46115;44.484;11.314;2022-09-09T23:43:33;99997.91;;;21.09;72.05
60258;BME280;46115;44.484;11.314;2022-09-09T23:47:39;99990.00;;;21.43;71.31
60258;BME280;46115;44.484;11.314;2022-09-09T23:51:41;99988.38;;;21.14;73.07
60258;BME280;46115;44.484;11.314;2022-09-09T23:55:44;99992.69;;;21.43;71.06
60258;BME280;46115;44.484;11.314;2022-09-09T23:59:48;99993.88;;;21.66;69.59
